createdAt,value
2023-03-08T00:02:19.238Z,8.34
2023-03-08T00:04:47.143Z,8.34
2023-03-08T00:07:15.971Z,8.32
2023-03-08T00:09:43.642Z,8.26
2023-03-08T00:12:10.945Z,8.21
2023-03-08T00:14:37.852Z,8.39
2023-03-08T00:17:04.808Z,8.47
2023-03-08T00:19:31.883Z,8.53
2023-03-08T00:21:58.701Z,8.57
2023-03-08T00:24:25.471Z,8.59
2023-03-08T00:26:52.154Z,8.62
2023-03-08T00:29:19.211Z,8.59
2023-03-08T00:31:46.608Z,8.62
2023-03-08T00:34:13.580Z,8.62
2023-03-08T00:36:40.972Z,8.67
2023-03-08T00:39:08.730Z,8.76
2023-03-08T00:41:38.123Z,8.78
2023-03-08T00:44:04.886Z,8.77
2023-03-08T00:46:32.148Z,8.78
2023-03-08T00:48:59.917Z,8.69
2023-03-08T00:51:26.810Z,8.58
2023-03-08T00:53:53.544Z,8.45
2023-03-08T00:56:21.148Z,8.43
2023-03-08T00:58:47.803Z,8.34
2023-03-08T01:01:18.573Z,8.13
2023-03-08T01:03:47.881Z,8.03
2023-03-08T01:06:16.511Z,8.04
2023-03-08T01:08:44.483Z,8.10
2023-03-08T01:11:21.356Z,8.21
2023-03-08T01:13:49.814Z,8.27
2023-03-08T01:16:23.550Z,8.39
2023-03-08T01:18:51.629Z,8.48
2023-03-08T01:21:20.534Z,8.53
2023-03-08T01:23:47.916Z,8.50
2023-03-08T01:26:17.674Z,8.52
2023-03-08T01:28:44.968Z,8.53
2023-03-08T01:31:13.816Z,8.46
2023-03-08T01:33:42.191Z,8.38
2023-03-08T01:36:11.898Z,8.30
2023-03-08T01:38:38.653Z,8.36
2023-03-08T01:41:08.748Z,8.32
2023-03-08T01:43:39.654Z,8.41
2023-03-08T01:46:25.182Z,8.42
2023-03-08T01:49:10.343Z,8.43
2023-03-08T01:51:44.696Z,8.32
2023-03-08T01:54:16.639Z,8.37
2023-03-08T01:56:47.390Z,8.39
2023-03-08T01:59:14.882Z,8.40
2023-03-08T02:01:41.926Z,8.30
2023-03-08T02:04:10.288Z,8.27
2023-03-08T02:06:37.930Z,8.34
2023-03-08T02:09:06.797Z,8.32
2023-03-08T02:11:36.262Z,8.39
2023-03-08T02:14:03.337Z,8.31
2023-03-08T02:16:31.310Z,8.22
2023-03-08T02:19:02.223Z,8.32
2023-03-08T02:21:29.762Z,8.33
2023-03-08T02:24:02.952Z,8.19
2023-03-08T02:26:29.719Z,8.24
2023-03-08T02:28:57.981Z,8.34
2023-03-08T02:31:25.053Z,8.33
2023-03-08T02:33:54.389Z,8.33
2023-03-08T02:36:21.417Z,8.40
2023-03-08T02:38:50.691Z,8.46
2023-03-08T02:41:17.981Z,8.45
2023-03-08T02:43:44.910Z,8.42
2023-03-08T02:46:14.653Z,8.38
2023-03-08T02:48:41.620Z,8.34
2023-03-08T02:51:11.620Z,8.20
2023-03-08T02:53:38.325Z,8.20
2023-03-08T02:56:06.213Z,8.23
2023-03-08T02:58:33.063Z,8.21
2023-03-08T03:00:59.838Z,8.22
2023-03-08T03:03:26.779Z,8.25
2023-03-08T03:05:53.754Z,8.19
2023-03-08T03:08:30.108Z,8.24
2023-03-08T03:10:57.230Z,8.29
2023-03-08T03:13:23.946Z,8.29
2023-03-08T03:15:51.975Z,8.23
2023-03-08T03:18:19.099Z,8.25
2023-03-08T03:20:45.769Z,8.22
2023-03-08T03:23:12.564Z,8.05
2023-03-08T03:25:48.606Z,8.12
2023-03-08T03:28:18.644Z,8.17
2023-03-08T03:30:45.698Z,8.23
2023-03-08T03:33:14.123Z,8.34
2023-03-08T03:35:41.352Z,8.42
2023-03-08T03:38:10.150Z,8.46
2023-03-08T03:40:37.481Z,8.20
2023-03-08T03:43:08.236Z,8.07
2023-03-08T03:45:35.127Z,8.04
2023-03-08T03:48:02.239Z,8.08
2023-03-08T03:50:29.852Z,8.08
2023-03-08T03:53:06.260Z,8.09
2023-03-08T03:55:33.345Z,8.07
2023-03-08T03:58:02.758Z,7.83
2023-03-08T04:00:31.154Z,7.81
2023-03-08T04:03:10.571Z,7.85
2023-03-08T04:05:40.088Z,7.97
2023-03-08T04:08:09.141Z,7.90
2023-03-08T04:10:38.359Z,7.90
2023-03-08T04:13:06.085Z,7.98
2023-03-08T04:15:33.638Z,8.03
2023-03-08T04:18:04.872Z,8.01
2023-03-08T04:20:34.242Z,8.02
2023-03-08T04:23:03.125Z,8.06
2023-03-08T04:25:37.168Z,7.96
2023-03-08T04:28:05.388Z,7.83
2023-03-08T04:30:32.747Z,7.81
2023-03-08T04:33:01.167Z,7.87
2023-03-08T04:35:35.712Z,7.83
2023-03-08T04:38:03.504Z,7.87
2023-03-08T04:40:30.520Z,7.93
2023-03-08T04:43:01.081Z,8.03
2023-03-08T04:45:34.983Z,7.98
2023-03-08T04:48:06.806Z,7.77
2023-03-08T04:50:34.202Z,7.85
2023-03-08T04:53:01.762Z,7.90
2023-03-08T04:55:28.937Z,7.75
2023-03-08T04:57:56.763Z,7.87
2023-03-08T05:00:25.007Z,7.90
2023-03-08T05:02:52.406Z,7.87
2023-03-08T05:05:19.687Z,7.83
2023-03-08T05:07:47.096Z,7.87
2023-03-08T05:10:13.942Z,7.81
2023-03-08T05:12:41.756Z,7.72
2023-03-08T05:15:09.633Z,7.72
2023-03-08T05:17:36.976Z,7.70
2023-03-08T05:20:04.637Z,7.66
2023-03-08T05:22:51.390Z,7.78
2023-03-08T05:25:24.767Z,7.81
2023-03-08T05:27:51.818Z,7.77
2023-03-08T05:30:21.664Z,7.78
2023-03-08T05:32:49.759Z,7.76
2023-03-08T05:35:16.722Z,7.79
2023-03-08T05:37:43.661Z,7.74
2023-03-08T05:40:12.030Z,7.66
2023-03-08T05:42:41.220Z,7.67
2023-03-08T05:45:15.464Z,7.59
2023-03-08T05:47:42.744Z,7.65
2023-03-08T05:50:10.662Z,7.63
2023-03-08T05:52:42.483Z,7.63
2023-03-08T05:55:13.577Z,7.51
2023-03-08T05:57:41.525Z,7.59
2023-03-08T06:00:09.374Z,7.59
2023-03-08T06:02:42.680Z,7.71
2023-03-08T06:05:10.066Z,7.72
2023-03-08T06:07:37.300Z,7.53
2023-03-08T06:10:10.065Z,7.41
2023-03-08T06:12:38.105Z,7.56
2023-03-08T06:15:07.584Z,7.54
2023-03-08T06:17:36.745Z,7.57
2023-03-08T06:20:05.251Z,7.72
2023-03-08T06:22:34.326Z,7.77
2023-03-08T06:25:03.229Z,7.57
2023-03-08T06:27:34.062Z,7.68
2023-03-08T06:30:05.351Z,7.81
2023-03-08T06:32:33.624Z,7.87
2023-03-08T06:35:05.170Z,7.62
2023-03-08T06:37:36.206Z,7.77
2023-03-08T06:40:09.057Z,7.83
2023-03-08T06:42:41.587Z,7.84
2023-03-08T06:45:11.695Z,7.85
2023-03-08T06:47:38.645Z,7.93
2023-03-08T06:50:06.442Z,7.86
2023-03-08T06:52:37.858Z,7.95
2023-03-08T06:55:13.295Z,8.07
2023-03-08T06:57:40.960Z,8.18
2023-03-08T07:00:09.654Z,8.23
2023-03-08T07:02:39.862Z,8.21
2023-03-08T07:05:07.250Z,8.15
2023-03-08T07:07:35.694Z,8.13
2023-03-08T07:10:03.961Z,8.18
2023-03-08T07:12:32.342Z,8.22
2023-03-08T07:14:59.103Z,8.21
2023-03-08T07:17:25.907Z,8.26
2023-03-08T07:19:54.075Z,8.30
2023-03-08T07:22:21.024Z,8.32
2023-03-08T07:24:51.084Z,8.29
2023-03-08T07:27:18.240Z,8.29
2023-03-08T07:29:47.038Z,8.16
2023-03-08T07:32:14.049Z,8.22
2023-03-08T07:34:44.142Z,8.16
2023-03-08T07:37:17.638Z,8.08
2023-03-08T07:39:44.605Z,8.04
2023-03-08T07:42:18.052Z,7.88
2023-03-08T07:44:51.221Z,7.74
2023-03-08T07:47:20.017Z,7.70
2023-03-08T07:49:49.286Z,7.67
2023-03-08T07:52:33.022Z,7.67
2023-03-08T07:55:09.609Z,7.58
2023-03-08T07:57:37.874Z,7.28
2023-03-08T08:00:12.527Z,6.87
2023-03-08T08:02:42.073Z,7.02
2023-03-08T08:05:09.714Z,6.99
2023-03-08T08:07:36.482Z,7.22
2023-03-08T08:10:04.608Z,7.35
2023-03-08T08:12:35.852Z,7.26
2023-03-08T08:15:02.556Z,7.24
2023-03-08T08:17:29.566Z,7.16
2023-03-08T08:19:56.488Z,7.10
2023-03-08T08:22:23.203Z,7.02
2023-03-08T08:24:49.895Z,7.09
2023-03-08T08:27:17.143Z,7.22
2023-03-08T08:29:46.255Z,7.23
2023-03-08T08:32:13.095Z,7.20
2023-03-08T08:34:39.792Z,7.02
2023-03-08T08:37:06.611Z,7.25
2023-03-08T08:39:33.365Z,7.32
2023-03-08T08:42:01.227Z,7.37
2023-03-08T08:44:27.960Z,7.08
2023-03-08T08:46:54.769Z,6.85
2023-03-08T08:49:21.656Z,7.01
2023-03-08T08:51:48.426Z,7.09
2023-03-08T08:54:15.807Z,7.24
2023-03-08T08:56:43.527Z,6.96
2023-03-08T08:59:14.764Z,6.15
2023-03-08T09:01:43.956Z,5.80
2023-03-08T09:04:13.290Z,5.85
2023-03-08T09:06:40.920Z,5.88
2023-03-08T09:09:08.704Z,6.08
2023-03-08T09:11:54.052Z,6.47
2023-03-08T09:14:21.625Z,6.76
2023-03-08T09:16:48.476Z,6.69
2023-03-08T09:19:15.638Z,6.31
2023-03-08T09:21:42.980Z,6.37
2023-03-08T09:24:14.116Z,6.69
2023-03-08T09:26:41.041Z,6.79
2023-03-08T09:29:08.132Z,6.56
2023-03-08T09:31:38.164Z,6.22
2023-03-08T09:34:09.482Z,6.50
2023-03-08T09:36:40.108Z,6.72
2023-03-08T09:39:09.016Z,6.59
2023-03-08T09:41:50.117Z,6.25
2023-03-08T09:44:35.144Z,6.08
2023-03-08T09:47:05.959Z,5.95
2023-03-08T09:49:35.092Z,5.79
2023-03-08T09:52:17.196Z,5.96
2023-03-08T09:54:46.666Z,6.03
2023-03-08T09:57:20.223Z,5.97
2023-03-08T10:00:09.914Z,5.94
2023-03-08T10:02:46.552Z,5.93
2023-03-08T10:05:50.999Z,6.23
2023-03-08T10:08:31.228Z,6.38
2023-03-08T10:11:04.420Z,6.50
2023-03-08T10:13:53.715Z,6.74
2023-03-08T10:16:32.483Z,6.76
2023-03-08T10:19:24.577Z,6.63
2023-03-08T10:22:17.455Z,6.62
2023-03-08T10:25:40.245Z,6.61
2023-03-08T10:28:31.686Z,6.77
2023-03-08T10:31:47.138Z,6.83
2023-03-08T10:34:52.191Z,6.96
2023-03-08T10:47:00.690Z,6.90
2023-03-08T10:49:44.038Z,6.95
2023-03-08T10:52:49.391Z,7.29
2023-03-08T10:55:43.109Z,7.26
2023-03-08T10:59:23.268Z,7.06
2023-03-08T11:02:18.617Z,7.10
2023-03-08T11:05:05.524Z,7.08
2023-03-08T11:07:49.420Z,7.32
2023-03-08T11:10:52.114Z,7.65
2023-03-08T11:14:47.508Z,7.48
2023-03-08T11:23:45.275Z,8.26
2023-03-08T11:26:41.490Z,8.11
2023-03-08T11:29:46.634Z,8.12
2023-03-08T11:32:44.145Z,8.39
2023-03-08T11:35:44.083Z,8.44
2023-03-08T11:38:44.676Z,8.41
2023-03-08T11:41:28.533Z,8.63
2023-03-08T11:44:33.631Z,8.96
2023-03-08T11:47:48.113Z,9.04
2023-03-08T11:51:23.493Z,9.01
2023-03-08T11:54:12.900Z,9.00
2023-03-08T11:57:08.342Z,8.87
2023-03-08T12:00:11.909Z,8.94
2023-03-08T12:02:53.804Z,8.79
2023-03-08T12:05:49.309Z,8.87
2023-03-08T12:08:29.379Z,9.02
2023-03-08T12:10:59.629Z,9.05
2023-03-08T12:13:40.367Z,9.16
2023-03-08T12:16:32.862Z,9.07
2023-03-08T12:19:20.112Z,9.28
2023-03-08T12:25:48.664Z,9.74
2023-03-08T12:28:44.001Z,9.81
2023-03-08T12:31:42.258Z,9.96
2023-03-08T12:34:45.519Z,10.35
2023-03-08T12:37:37.166Z,10.53
2023-03-08T12:40:42.590Z,10.65
2023-03-08T12:43:25.515Z,10.53
2023-03-08T12:46:13.137Z,10.69
2023-03-08T12:48:58.970Z,10.92
2023-03-08T12:57:27.435Z,10.88
2023-03-08T13:00:35.368Z,10.72
2023-03-08T13:03:18.416Z,10.63
2023-03-08T13:12:39.116Z,10.30
2023-03-08T13:15:16.643Z,10.34
2023-03-08T13:18:00.842Z,10.24
2023-03-08T13:20:41.750Z,10.16
2023-03-08T13:23:16.327Z,10.34
2023-03-08T13:25:57.049Z,10.30
2023-03-08T13:28:47.340Z,10.35
2023-03-08T13:31:22.149Z,10.34
2023-03-08T13:33:52.901Z,10.40
2023-03-08T13:36:21.414Z,10.44
2023-03-08T13:39:21.792Z,10.50
2023-03-08T13:41:49.290Z,10.53
2023-03-08T13:44:25.841Z,10.53
2023-03-08T13:46:56.841Z,10.56
2023-03-08T13:49:28.635Z,10.59
2023-03-08T13:51:59.253Z,10.72
2023-03-08T13:54:33.375Z,10.83
2023-03-08T13:57:03.335Z,10.94
2023-03-08T13:59:32.536Z,10.93
2023-03-08T14:02:00.865Z,10.93
2023-03-08T14:04:29.960Z,11.01
2023-03-08T14:07:01.224Z,11.04
2023-03-08T14:09:28.368Z,11.07
2023-03-08T14:12:01.194Z,11.17
2023-03-08T14:14:34.378Z,11.32
2023-03-08T14:17:01.734Z,11.46
2023-03-08T14:19:31.415Z,11.57
2023-03-08T14:22:01.937Z,11.60
2023-03-08T14:24:34.719Z,11.67
2023-03-08T14:27:07.322Z,11.73
2023-03-08T14:29:35.627Z,11.80
2023-03-08T14:32:02.513Z,11.76
2023-03-08T14:34:34.037Z,11.71
2023-03-08T14:37:22.650Z,11.72
2023-03-08T14:39:53.366Z,11.68
2023-03-08T14:42:44.285Z,11.65
2023-03-08T14:45:30.265Z,11.64
2023-03-08T14:48:21.905Z,11.64
2023-03-08T14:51:17.237Z,11.72
2023-03-08T14:53:44.042Z,11.82
2023-03-08T14:56:16.649Z,11.89
2023-03-08T14:58:48.893Z,11.89
2023-03-08T15:01:36.953Z,11.93
2023-03-08T15:04:13.208Z,11.94
2023-03-08T15:06:40.966Z,11.94
2023-03-08T15:09:08.627Z,11.96
2023-03-08T15:11:35.587Z,11.95
2023-03-08T15:14:03.125Z,12.04
2023-03-08T15:16:30.107Z,12.06
2023-03-08T15:19:00.481Z,12.08
2023-03-08T15:21:30.844Z,12.05
2023-03-08T15:23:59.445Z,12.10
2023-03-08T15:26:31.728Z,12.10
2023-03-08T15:29:05.218Z,12.15
2023-03-08T15:31:32.360Z,12.16
2023-03-08T15:34:01.705Z,12.18
2023-03-08T15:36:32.555Z,12.24
2023-03-08T15:39:01.401Z,12.23
2023-03-08T15:41:28.235Z,12.28
2023-03-08T15:43:55.172Z,12.24
2023-03-08T15:46:23.384Z,12.31
2023-03-08T15:48:51.382Z,12.34
2023-03-08T15:51:26.953Z,12.38
2023-03-08T15:53:53.758Z,12.38
2023-03-08T15:56:22.837Z,12.36
2023-03-08T15:58:49.605Z,12.37
2023-03-08T16:01:16.417Z,12.44
2023-03-08T16:03:43.259Z,12.43
2023-03-08T16:06:11.859Z,12.35
2023-03-08T16:08:39.860Z,12.38
2023-03-08T16:11:18.156Z,12.41
2023-03-08T16:13:49.782Z,12.42
2023-03-08T16:16:18.147Z,12.41
2023-03-08T16:18:45.149Z,12.33
2023-03-08T16:21:12.206Z,12.34
2023-03-08T16:23:40.167Z,12.32
2023-03-08T16:26:15.682Z,12.32
2023-03-08T16:28:46.764Z,12.29
2023-03-08T16:31:15.457Z,12.28
2023-03-08T16:33:42.270Z,12.26
2023-03-08T16:36:12.536Z,12.23
2023-03-08T16:38:39.574Z,12.18
2023-03-08T16:41:14.387Z,12.14
2023-03-08T16:43:47.342Z,12.16
2023-03-08T16:46:17.596Z,12.21
2023-03-08T16:48:44.458Z,12.22
2023-03-08T16:51:15.495Z,12.26
2023-03-08T16:53:42.266Z,12.22
2023-03-08T16:56:10.646Z,12.18
2023-03-08T16:58:37.429Z,12.15
2023-03-08T17:01:12.841Z,12.19
2023-03-08T17:03:40.029Z,12.16
2023-03-08T17:06:08.703Z,12.16
2023-03-08T17:08:35.676Z,12.21
2023-03-08T17:11:05.026Z,12.20
2023-03-08T17:13:34.929Z,12.14
2023-03-08T17:16:02.687Z,12.05
2023-03-08T17:18:29.700Z,11.96
2023-03-08T17:20:57.824Z,11.92
2023-03-08T17:23:25.086Z,11.82
2023-03-08T17:25:52.552Z,11.74
2023-03-08T17:28:23.155Z,11.63
2023-03-08T17:30:51.942Z,11.51
2023-03-08T17:33:18.755Z,11.40
2023-03-08T17:35:45.500Z,11.34
2023-03-08T17:38:15.324Z,11.33
2023-03-08T17:40:41.864Z,11.31
2023-03-08T17:43:09.706Z,11.30
2023-03-08T17:45:36.483Z,11.35
2023-03-08T17:48:03.876Z,11.33
2023-03-08T17:50:33.296Z,11.32
2023-03-08T17:53:00.416Z,11.31
2023-03-08T17:55:28.142Z,11.27
2023-03-08T17:57:55.016Z,11.30
2023-03-08T18:00:21.841Z,11.29
2023-03-08T18:02:48.584Z,11.28
2023-03-08T18:05:15.248Z,11.29
2023-03-08T18:07:42.192Z,11.29
2023-03-08T18:10:11.018Z,11.31
2023-03-08T18:12:37.818Z,11.35
2023-03-08T18:15:05.030Z,11.35
2023-03-08T18:17:34.111Z,11.41
2023-03-08T18:20:01.539Z,11.48
2023-03-08T18:22:29.388Z,11.43
2023-03-08T18:24:56.077Z,11.42
2023-03-08T18:27:22.939Z,11.51
2023-03-08T18:29:49.745Z,11.61
2023-03-08T18:32:16.601Z,11.63
2023-03-08T18:34:44.570Z,11.66
2023-03-08T18:37:11.761Z,11.67
2023-03-08T18:39:38.942Z,11.62
2023-03-08T18:42:06.000Z,11.58
2023-03-08T18:44:32.914Z,11.59
2023-03-08T18:47:00.220Z,11.58
2023-03-08T18:49:27.304Z,11.58
2023-03-08T18:51:54.050Z,11.58
2023-03-08T18:54:20.908Z,11.55
2023-03-08T18:56:50.038Z,11.55
2023-03-08T18:59:17.243Z,11.55
2023-03-08T19:01:47.109Z,11.58
2023-03-08T19:04:18.016Z,11.62
2023-03-08T19:06:48.265Z,11.64
2023-03-08T19:09:22.155Z,11.61
2023-03-08T19:11:50.607Z,11.58
2023-03-08T19:14:29.356Z,11.49
2023-03-08T19:16:58.744Z,11.55
2023-03-08T19:19:27.980Z,11.58
2023-03-08T19:21:54.768Z,11.63
2023-03-08T19:24:22.304Z,11.63
2023-03-08T19:26:52.678Z,11.65
2023-03-08T19:29:22.402Z,11.65
2023-03-08T19:31:58.439Z,11.59
2023-03-08T19:34:33.980Z,11.60
2023-03-08T19:37:02.287Z,11.66
2023-03-08T19:39:31.448Z,11.65
2023-03-08T19:42:02.940Z,11.68
2023-03-08T19:44:31.062Z,11.67
2023-03-08T19:46:58.669Z,11.62
2023-03-08T19:49:32.521Z,11.65
2023-03-08T19:52:02.522Z,11.68
2023-03-08T19:54:55.895Z,11.70
2023-03-08T19:57:49.937Z,11.73
2023-03-08T20:00:41.139Z,11.74
2023-03-08T20:03:33.716Z,11.74
2023-03-08T20:07:05.328Z,11.74
2023-03-08T20:10:15.466Z,11.69
2023-03-08T20:13:26.662Z,11.77
2023-03-08T20:16:07.300Z,11.77
2023-03-08T20:18:57.639Z,11.83
2023-03-08T20:21:32.857Z,11.89
2023-03-08T20:24:13.873Z,11.91
2023-03-08T20:26:54.962Z,11.94
2023-03-08T20:29:48.769Z,11.80
2023-03-08T20:32:30.068Z,11.72
2023-03-08T20:35:18.225Z,11.63
2023-03-08T20:38:10.443Z,11.49
2023-03-08T20:40:44.092Z,11.33
2023-03-08T20:43:25.377Z,11.21
2023-03-08T20:45:57.731Z,11.29
2023-03-08T20:48:48.254Z,11.23
2023-03-08T20:51:23.228Z,10.99
2023-03-08T20:54:45.274Z,10.99
2023-03-08T20:57:38.860Z,10.97
2023-03-08T21:00:25.726Z,10.97
2023-03-08T21:03:30.732Z,10.85
2023-03-08T21:06:14.062Z,10.85
2023-03-08T21:08:53.499Z,10.93
2023-03-08T21:11:30.159Z,11.03
2023-03-08T21:14:19.688Z,11.10
2023-03-08T21:16:49.122Z,11.11
2023-03-08T21:19:19.578Z,11.23
2023-03-08T21:21:58.142Z,11.35
2023-03-08T21:24:30.700Z,11.41
2023-03-08T21:26:59.922Z,11.24
2023-03-08T21:29:28.440Z,11.16
2023-03-08T21:32:08.836Z,11.14
2023-03-08T21:34:46.000Z,11.25
2023-03-08T21:37:19.736Z,11.45
2023-03-08T21:43:46.234Z,11.69
2023-03-08T21:46:25.572Z,11.70
2023-03-08T21:48:57.722Z,11.73
2023-03-08T21:51:31.958Z,11.79
2023-03-08T21:54:00.973Z,11.76
2023-03-08T21:56:34.151Z,11.81
2023-03-08T21:59:13.687Z,11.83
2023-03-08T22:01:44.339Z,11.75
2023-03-08T22:04:14.063Z,11.70
2023-03-08T22:07:05.212Z,11.69
2023-03-08T22:09:53.195Z,11.70
2023-03-08T22:12:54.859Z,11.75
2023-03-08T22:15:26.480Z,11.79
2023-03-08T22:18:03.251Z,11.86
2023-03-08T22:20:36.571Z,11.92
2023-03-08T22:23:14.441Z,11.89
2023-03-08T22:25:50.294Z,11.88
2023-03-08T22:28:33.099Z,11.88
2023-03-08T22:34:46.596Z,11.75
2023-03-08T22:37:49.052Z,11.73
2023-03-08T22:40:50.470Z,11.70
2023-03-08T22:43:37.679Z,11.72
2023-03-08T22:50:07.631Z,11.78
2023-03-08T22:53:15.430Z,11.67
2023-03-08T22:56:08.876Z,11.54
2023-03-08T22:58:42.429Z,11.33
2023-03-08T23:01:19.052Z,11.24
2023-03-08T23:03:49.422Z,11.21
2023-03-08T23:06:18.262Z,11.30
2023-03-08T23:08:47.952Z,11.42
2023-03-08T23:11:15.189Z,11.43
2023-03-08T23:13:42.311Z,11.45
2023-03-08T23:16:14.112Z,11.58
2023-03-08T23:18:42.304Z,11.64
2023-03-08T23:21:12.756Z,11.62
2023-03-08T23:23:40.000Z,11.72
2023-03-08T23:26:15.118Z,11.72
2023-03-08T23:28:42.590Z,11.76
2023-03-08T23:31:11.785Z,11.72
2023-03-08T23:33:39.545Z,11.65
2023-03-08T23:36:07.345Z,11.55
2023-03-08T23:38:34.234Z,11.49
2023-03-08T23:41:08.308Z,11.49
2023-03-08T23:43:36.097Z,11.47
2023-03-08T23:46:10.277Z,11.48
2023-03-08T23:48:37.104Z,11.51
2023-03-08T23:51:15.625Z,11.52
2023-03-08T23:53:42.586Z,11.53
2023-03-08T23:56:27.019Z,11.55
2023-03-08T23:58:56.041Z,11.57
